createdAt,value
2022-07-26T02:00:47.665Z,0.70
2022-07-26T02:01:08.341Z,0.80
2022-07-26T02:01:38.075Z,0.70
2022-07-26T02:01:49.569Z,0.70
2022-07-26T02:02:10.288Z,0.70
2022-07-26T02:02:30.962Z,0.80
2022-07-26T02:02:51.710Z,0.60
2022-07-26T02:03:12.560Z,0.70
2022-07-26T02:03:33.144Z,0.80
2022-07-26T02:03:53.726Z,0.80
2022-07-26T02:04:14.305Z,0.80
2022-07-26T02:04:34.889Z,0.70
2022-07-26T02:04:55.468Z,0.70
2022-07-26T02:05:15.861Z,0.70
2022-07-26T02:05:36.444Z,0.80
2022-07-26T02:05:57.022Z,0.80
2022-07-26T02:06:17.611Z,0.70
2022-07-26T02:06:38.194Z,0.80
2022-07-26T02:07:00.096Z,0.70
2022-07-26T02:07:20.489Z,0.90
2022-07-26T02:07:43.066Z,0.80
2022-07-26T02:08:05.319Z,0.80
2022-07-26T02:08:25.911Z,0.90
2022-07-26T02:08:46.488Z,0.80
2022-07-26T02:09:07.706Z,0.80
2022-07-26T02:09:38.015Z,0.80
2022-07-26T02:09:52.497Z,0.90
2022-07-26T02:10:13.254Z,1.00
2022-07-26T02:10:35.099Z,0.80
2022-07-26T02:10:55.682Z,1.10
2022-07-26T02:11:16.262Z,0.80
2022-07-26T02:11:36.839Z,1.00
2022-07-26T02:11:57.420Z,1.20
2022-07-26T02:12:18.002Z,1.10
2022-07-26T02:12:38.585Z,1.00
2022-07-26T02:12:59.167Z,0.80
2022-07-26T02:13:19.767Z,0.90
2022-07-26T02:13:40.350Z,1.00
2022-07-26T02:14:00.941Z,1.00
2022-07-26T02:14:25.833Z,0.80
2022-07-26T02:14:41.933Z,0.80
2022-07-26T02:15:02.328Z,0.70
2022-07-26T02:15:22.914Z,0.80
2022-07-26T02:15:43.554Z,0.80
2022-07-26T02:16:03.954Z,0.70
2022-07-26T02:16:24.580Z,0.90
2022-07-26T02:16:45.142Z,1.10
2022-07-26T02:17:05.826Z,0.90
2022-07-26T02:17:26.411Z,1.00
2022-07-26T02:17:46.994Z,0.90
2022-07-26T02:18:07.578Z,0.90
2022-07-26T02:18:28.172Z,0.90
2022-07-26T02:18:48.764Z,1.00
2022-07-26T02:19:09.345Z,1.10
2022-07-26T02:19:29.936Z,1.00
2022-07-26T02:19:50.510Z,0.90
2022-07-26T02:20:10.904Z,0.90
2022-07-26T02:20:31.483Z,1.00
2022-07-26T02:20:52.065Z,0.90
2022-07-26T02:21:12.648Z,1.10
2022-07-26T02:21:33.233Z,0.90
2022-07-26T02:21:53.812Z,1.00
2022-07-26T02:22:14.400Z,1.00
2022-07-26T02:22:34.985Z,0.90
2022-07-26T02:22:55.567Z,1.10
2022-07-26T02:23:16.167Z,1.10
2022-07-26T02:23:36.751Z,1.10
2022-07-26T02:23:57.150Z,1.10
2022-07-26T02:24:17.734Z,1.10
2022-07-26T02:24:38.312Z,0.90
2022-07-26T02:25:04.499Z,1.10
2022-07-26T02:25:19.297Z,1.00
2022-07-26T02:25:39.885Z,0.90
2022-07-26T02:26:00.460Z,0.90
2022-07-26T02:26:21.048Z,0.90
2022-07-26T02:26:41.630Z,0.90
2022-07-26T02:27:02.028Z,1.10
2022-07-26T02:27:22.611Z,0.90
2022-07-26T02:27:43.190Z,0.90
2022-07-26T02:28:03.768Z,1.00
2022-07-26T02:28:24.369Z,0.90
2022-07-26T02:28:44.956Z,1.20
2022-07-26T02:29:05.536Z,1.30
2022-07-26T02:29:26.120Z,1.00
2022-07-26T02:29:46.708Z,1.20
2022-07-26T02:30:07.293Z,1.30
2022-07-26T02:30:27.688Z,1.20
2022-07-26T02:30:48.309Z,1.00
2022-07-26T02:31:08.706Z,1.00
2022-07-26T02:31:32.161Z,1.00
2022-07-26T02:31:53.067Z,1.00
2022-07-26T02:32:13.617Z,1.00
2022-07-26T02:32:34.205Z,0.90
2022-07-26T02:32:54.793Z,1.00
2022-07-26T02:33:15.379Z,1.10
2022-07-26T02:33:35.980Z,0.90
2022-07-26T02:33:56.554Z,1.00
2022-07-26T02:34:17.138Z,0.90
2022-07-26T02:34:37.725Z,1.10
2022-07-26T02:34:58.309Z,1.10
2022-07-26T02:35:18.888Z,1.20
2022-07-26T02:35:39.472Z,1.10
2022-07-26T02:36:00.060Z,1.10
2022-07-26T02:36:20.641Z,1.10
2022-07-26T02:36:41.702Z,1.40
2022-07-26T02:37:02.286Z,1.00
2022-07-26T02:37:22.870Z,1.00
2022-07-26T02:37:43.894Z,1.00
2022-07-26T02:38:03.842Z,1.10
2022-07-26T02:38:25.164Z,0.90
2022-07-26T02:38:45.857Z,1.10
2022-07-26T02:39:06.439Z,1.10
2022-07-26T02:39:27.019Z,1.00
2022-07-26T02:39:47.414Z,1.00
2022-07-26T02:40:07.813Z,1.00
2022-07-26T02:40:28.390Z,1.00
2022-07-26T02:40:48.971Z,1.00
2022-07-26T02:41:09.554Z,1.20
2022-07-26T02:41:30.726Z,1.20
2022-07-26T02:41:51.312Z,1.30
2022-07-26T02:42:11.899Z,1.10
2022-07-26T02:42:32.292Z,1.20
2022-07-26T02:42:52.881Z,1.10
2022-07-26T02:43:13.273Z,1.20
2022-07-26T02:43:33.873Z,0.90
2022-07-26T02:43:54.268Z,0.90
2022-07-26T02:44:14.849Z,1.10
2022-07-26T02:44:35.429Z,1.30
2022-07-26T02:44:56.370Z,1.10
2022-07-26T02:45:16.954Z,1.00
2022-07-26T02:45:37.534Z,1.00
2022-07-26T02:46:01.175Z,0.90
2022-07-26T02:46:22.577Z,1.00
2022-07-26T02:46:43.283Z,1.10
2022-07-26T02:47:03.855Z,1.00
2022-07-26T02:47:24.434Z,1.00
2022-07-26T02:47:45.012Z,1.00
2022-07-26T02:48:05.595Z,0.90
2022-07-26T02:48:26.330Z,1.10
2022-07-26T02:48:46.952Z,1.00
2022-07-26T02:49:08.355Z,1.00
2022-07-26T02:49:28.900Z,1.20
2022-07-26T02:49:50.795Z,1.20
2022-07-26T02:50:11.341Z,1.20
2022-07-26T02:50:31.925Z,1.10
2022-07-26T02:50:52.509Z,1.00
2022-07-26T02:51:13.089Z,1.10
2022-07-26T02:51:33.669Z,1.10
2022-07-26T02:51:54.251Z,1.20
2022-07-26T02:52:14.835Z,1.20
2022-07-26T02:52:35.420Z,1.00
2022-07-26T02:52:56.008Z,1.00
2022-07-26T02:53:16.586Z,1.10
2022-07-26T02:53:37.188Z,0.80
2022-07-26T02:53:57.769Z,1.10
2022-07-26T02:54:18.349Z,0.90
2022-07-26T02:54:38.928Z,0.90
2022-07-26T02:54:59.510Z,1.10
2022-07-26T02:55:20.095Z,1.10
2022-07-26T02:55:40.487Z,1.00
2022-07-26T02:56:01.060Z,1.00
2022-07-26T02:56:21.475Z,1.00
2022-07-26T02:56:42.053Z,1.00
2022-07-26T02:57:02.635Z,1.10
2022-07-26T02:57:23.215Z,1.00
2022-07-26T02:57:46.219Z,0.90
2022-07-26T02:58:04.192Z,1.00
2022-07-26T02:58:24.791Z,1.00
2022-07-26T02:58:45.369Z,1.20
2022-07-26T02:59:05.946Z,1.10
2022-07-26T02:59:26.532Z,1.10
2022-07-26T02:59:47.115Z,1.10
2022-07-26T03:00:07.701Z,1.10
2022-07-26T03:00:28.280Z,1.20
2022-07-26T03:00:48.878Z,1.30
2022-07-26T03:01:09.523Z,1.10
2022-07-26T03:01:30.171Z,1.30
2022-07-26T03:01:50.843Z,1.00
2022-07-26T03:02:11.433Z,1.20
2022-07-26T03:02:32.235Z,1.00
2022-07-26T03:02:52.897Z,1.00
2022-07-26T03:03:13.527Z,1.00
2022-07-26T03:03:34.100Z,1.00
2022-07-26T03:03:58.790Z,1.10
2022-07-26T03:04:19.374Z,1.00
2022-07-26T03:04:39.957Z,1.00
2022-07-26T03:05:00.538Z,1.10
2022-07-26T03:05:20.934Z,1.20
2022-07-26T03:05:41.331Z,1.30
2022-07-26T03:06:01.915Z,1.10
2022-07-26T03:06:22.495Z,1.10
2022-07-26T03:06:43.076Z,0.90
2022-07-26T03:07:03.477Z,1.00
2022-07-26T03:07:24.680Z,1.00
2022-07-26T03:07:45.263Z,1.00
2022-07-26T03:08:05.845Z,1.00
2022-07-26T03:08:26.261Z,1.20
2022-07-26T03:08:46.837Z,1.20
2022-07-26T03:09:07.431Z,1.00
2022-07-26T03:09:28.009Z,0.90
2022-07-26T03:09:48.592Z,1.00
2022-07-26T03:10:09.175Z,1.00
2022-07-26T03:10:29.569Z,1.20
2022-07-26T03:10:50.797Z,1.20
2022-07-26T03:11:12.255Z,1.30
2022-07-26T03:11:32.978Z,1.00
2022-07-26T03:11:53.566Z,1.10
2022-07-26T03:12:14.155Z,1.10
2022-07-26T03:12:34.739Z,1.20
2022-07-26T03:12:55.324Z,1.00
2022-07-26T03:13:15.721Z,1.00
2022-07-26T03:13:36.315Z,0.90
2022-07-26T03:13:56.899Z,0.90
2022-07-26T03:14:17.484Z,1.00
2022-07-26T03:14:38.070Z,1.10
2022-07-26T03:14:58.653Z,1.10
2022-07-26T03:15:19.235Z,1.20
2022-07-26T03:15:39.851Z,0.90
2022-07-26T03:16:00.526Z,0.90
2022-07-26T03:16:24.785Z,1.00
2022-07-26T03:16:41.568Z,1.10
2022-07-26T03:17:02.161Z,1.30
2022-07-26T03:17:22.744Z,1.10
2022-07-26T03:17:43.328Z,1.20
2022-07-26T03:18:03.915Z,1.10
2022-07-26T03:18:24.513Z,1.10
2022-07-26T03:18:45.106Z,1.10
2022-07-26T03:19:05.674Z,1.20
2022-07-26T03:19:26.258Z,1.10
2022-07-26T03:19:46.848Z,0.90
2022-07-26T03:20:07.427Z,1.00
2022-07-26T03:20:28.012Z,0.90
2022-07-26T03:20:48.599Z,1.00
2022-07-26T03:21:09.183Z,1.00
2022-07-26T03:21:29.764Z,1.10
2022-07-26T03:21:50.347Z,1.10
2022-07-26T03:22:10.930Z,1.10
2022-07-26T03:22:31.517Z,1.10
2022-07-26T03:22:52.099Z,1.10
2022-07-26T03:23:12.680Z,1.00
2022-07-26T03:23:33.418Z,1.10
2022-07-26T03:23:54.182Z,0.90
2022-07-26T03:24:14.771Z,0.90
2022-07-26T03:24:35.353Z,0.90
2022-07-26T03:24:55.939Z,1.10
2022-07-26T03:25:16.533Z,1.10
2022-07-26T03:25:37.569Z,0.90
2022-07-26T03:25:58.334Z,0.90
2022-07-26T03:26:18.917Z,0.90
2022-07-26T03:26:39.507Z,1.00
2022-07-26T03:27:00.092Z,1.00
2022-07-26T03:27:20.668Z,1.10
2022-07-26T03:27:41.260Z,0.90
2022-07-26T03:28:01.842Z,1.10
2022-07-26T03:28:22.441Z,1.00
2022-07-26T03:28:43.021Z,1.10
2022-07-26T03:29:03.610Z,1.00
2022-07-26T03:29:24.189Z,0.90
2022-07-26T03:29:44.773Z,1.00
2022-07-26T03:30:05.356Z,0.90
2022-07-26T03:30:26.607Z,1.10
2022-07-26T03:30:47.320Z,0.90
2022-07-26T03:31:07.937Z,0.90
2022-07-26T03:31:28.641Z,0.80
2022-07-26T03:31:49.245Z,0.80
2022-07-26T03:32:09.647Z,0.90
2022-07-26T03:32:30.225Z,0.90
2022-07-26T03:32:50.814Z,1.00
2022-07-26T03:33:11.401Z,1.00
2022-07-26T03:33:31.999Z,1.20
2022-07-26T03:33:52.628Z,1.20
2022-07-26T03:34:13.166Z,1.00
2022-07-26T03:34:33.752Z,1.10
2022-07-26T03:34:54.334Z,1.00
2022-07-26T03:35:14.911Z,1.20
2022-07-26T03:35:36.501Z,1.00
2022-07-26T03:35:57.434Z,0.90
2022-07-26T03:36:18.005Z,1.10
2022-07-26T03:36:38.589Z,0.90
2022-07-26T03:36:59.183Z,0.90
2022-07-26T03:37:19.764Z,1.00
2022-07-26T03:37:45.173Z,1.00
2022-07-26T03:38:00.748Z,0.90
2022-07-26T03:38:21.345Z,1.00
2022-07-26T03:38:41.932Z,0.90
2022-07-26T03:39:02.519Z,0.80
2022-07-26T03:39:23.108Z,1.10
2022-07-26T03:39:43.700Z,1.30
2022-07-26T03:40:04.289Z,1.10
2022-07-26T03:40:24.948Z,1.00
2022-07-26T03:40:45.497Z,1.00
2022-07-26T03:41:06.078Z,0.90
2022-07-26T03:41:26.663Z,0.90
2022-07-26T03:41:47.057Z,0.90
2022-07-26T03:42:07.640Z,0.90
2022-07-26T03:42:28.227Z,1.20
2022-07-26T03:42:48.614Z,1.00
2022-07-26T03:43:09.200Z,1.00
2022-07-26T03:43:29.798Z,1.00
2022-07-26T03:43:51.389Z,1.00
2022-07-26T03:44:11.936Z,1.30
2022-07-26T03:44:32.480Z,1.30
2022-07-26T03:44:53.061Z,1.00
2022-07-26T03:45:13.639Z,0.90
2022-07-26T03:45:34.220Z,1.00
2022-07-26T03:45:54.989Z,1.00
2022-07-26T03:46:15.639Z,1.00
2022-07-26T03:46:36.321Z,0.90
2022-07-26T03:46:56.914Z,1.00
2022-07-26T03:47:17.501Z,1.00
2022-07-26T03:47:38.082Z,0.70
2022-07-26T03:47:58.476Z,0.80
2022-07-26T03:48:19.071Z,1.10
2022-07-26T03:48:39.694Z,0.90
2022-07-26T03:49:00.373Z,0.80
2022-07-26T03:49:21.049Z,0.70
2022-07-26T03:49:42.247Z,0.70
2022-07-26T03:50:02.828Z,0.80
2022-07-26T03:50:23.411Z,0.90
2022-07-26T03:50:43.992Z,0.80
2022-07-26T03:51:04.398Z,0.80
2022-07-26T03:51:24.974Z,1.10
2022-07-26T03:51:45.554Z,0.70
2022-07-26T03:52:06.141Z,0.90
2022-07-26T03:52:26.725Z,1.00
2022-07-26T03:52:47.305Z,0.80
2022-07-26T03:53:08.015Z,0.80
2022-07-26T03:53:28.611Z,0.70
2022-07-26T03:53:49.377Z,0.70
2022-07-26T03:54:10.338Z,0.90
2022-07-26T03:54:31.137Z,0.90
2022-07-26T03:54:51.713Z,0.60
2022-07-26T03:55:12.110Z,0.60
2022-07-26T03:55:32.694Z,0.80
2022-07-26T03:55:53.268Z,0.80
2022-07-26T03:56:13.854Z,1.10
2022-07-26T03:56:35.658Z,1.00
2022-07-26T03:56:56.050Z,1.00
2022-07-26T03:57:16.630Z,1.10
2022-07-26T03:57:37.211Z,1.00
2022-07-26T03:57:57.799Z,0.80
2022-07-26T03:58:18.393Z,0.80
2022-07-26T03:58:38.993Z,0.60
2022-07-26T03:58:59.574Z,0.70
2022-07-26T03:59:20.154Z,0.90
2022-07-26T03:59:40.741Z,0.70
2022-07-26T04:00:01.801Z,0.80
2022-07-26T04:00:22.381Z,0.90
2022-07-26T04:00:42.959Z,0.80
2022-07-26T04:01:03.618Z,0.80
2022-07-26T04:01:24.338Z,0.70
2022-07-26T04:01:44.988Z,0.70
2022-07-26T04:02:05.438Z,0.70
2022-07-26T04:02:26.147Z,0.70
2022-07-26T04:02:46.820Z,0.70
2022-07-26T04:03:07.396Z,0.80
2022-07-26T04:03:27.990Z,0.80
2022-07-26T04:03:49.441Z,0.90
2022-07-26T04:04:11.507Z,0.80
2022-07-26T04:04:32.266Z,0.90
2022-07-26T04:04:52.906Z,0.70
2022-07-26T04:05:13.285Z,0.70
2022-07-26T04:05:33.887Z,0.70
2022-07-26T04:05:56.736Z,0.80
2022-07-26T04:06:17.319Z,0.70
2022-07-26T04:06:38.154Z,0.60
2022-07-26T04:06:58.737Z,0.60
2022-07-26T04:07:19.135Z,0.70
2022-07-26T04:07:39.802Z,0.80
2022-07-26T04:08:00.751Z,0.70
2022-07-26T04:08:21.351Z,0.50
2022-07-26T04:08:41.932Z,0.60
2022-07-26T04:09:02.525Z,0.60
2022-07-26T04:09:25.926Z,0.60
2022-07-26T04:09:46.508Z,0.90
2022-07-26T04:10:07.088Z,0.70
2022-07-26T04:10:27.679Z,0.80
2022-07-26T04:10:48.253Z,0.90
2022-07-26T04:11:08.841Z,0.60
2022-07-26T04:11:29.422Z,0.80
2022-07-26T04:11:50.009Z,0.90
2022-07-26T04:12:10.597Z,0.80
2022-07-26T04:12:31.180Z,0.70
2022-07-26T04:12:51.762Z,0.80
2022-07-26T04:13:12.341Z,0.60
2022-07-26T04:13:32.946Z,0.60
2022-07-26T04:13:53.532Z,0.60
2022-07-26T04:14:14.115Z,0.60
2022-07-26T04:14:34.704Z,0.70
2022-07-26T04:14:55.286Z,0.80
2022-07-26T04:15:15.880Z,0.70
2022-07-26T04:15:36.462Z,0.80
2022-07-26T04:15:57.053Z,0.70
2022-07-26T04:16:17.633Z,0.80
2022-07-26T04:16:43.228Z,0.60
2022-07-26T04:16:58.653Z,0.60
2022-07-26T04:17:19.305Z,0.70
2022-07-26T04:17:39.899Z,0.70
2022-07-26T04:18:00.461Z,0.60
2022-07-26T04:18:21.054Z,0.60
2022-07-26T04:18:44.687Z,0.70
2022-07-26T04:19:05.087Z,0.60
2022-07-26T04:19:25.479Z,0.70
2022-07-26T04:19:46.064Z,0.70
2022-07-26T04:20:06.651Z,0.70
2022-07-26T04:20:27.237Z,0.70
2022-07-26T04:20:47.829Z,0.70
2022-07-26T04:21:08.401Z,0.50
2022-07-26T04:21:28.985Z,0.70
2022-07-26T04:21:49.564Z,0.60
2022-07-26T04:22:10.146Z,0.70
2022-07-26T04:22:30.737Z,0.80
2022-07-26T04:22:51.127Z,0.70
2022-07-26T04:23:12.300Z,0.60
2022-07-26T04:23:31.945Z,0.60
2022-07-26T04:23:52.529Z,0.70
2022-07-26T04:24:13.108Z,0.70
2022-07-26T04:24:33.686Z,0.60
2022-07-26T04:24:54.276Z,0.60
2022-07-26T04:25:14.864Z,0.50
2022-07-26T04:25:38.835Z,0.50
2022-07-26T04:25:55.848Z,0.60
2022-07-26T04:26:16.427Z,0.60
2022-07-26T04:26:37.007Z,0.60
2022-07-26T04:26:57.400Z,0.50
2022-07-26T04:27:17.985Z,0.50
2022-07-26T04:27:38.569Z,0.60
2022-07-26T04:27:59.151Z,0.50
2022-07-26T04:28:19.750Z,0.70
2022-07-26T04:28:40.331Z,0.70
2022-07-26T04:29:00.726Z,0.60
2022-07-26T04:29:21.304Z,0.60
2022-07-26T04:29:41.888Z,0.70
2022-07-26T04:30:02.470Z,0.70
2022-07-26T04:30:22.864Z,0.70
2022-07-26T04:30:43.529Z,0.80
2022-07-26T04:31:04.124Z,0.70
2022-07-26T04:31:24.742Z,0.70
2022-07-26T04:31:45.285Z,0.70
2022-07-26T04:32:05.876Z,0.70
2022-07-26T04:32:26.442Z,0.60
2022-07-26T04:32:47.053Z,0.60
2022-07-26T04:33:07.617Z,0.60
2022-07-26T04:33:28.214Z,0.70
2022-07-26T04:33:48.796Z,0.60
2022-07-26T04:34:09.838Z,0.70
2022-07-26T04:34:30.877Z,0.70
2022-07-26T04:34:51.459Z,0.80
2022-07-26T04:35:12.041Z,0.70
2022-07-26T04:35:32.622Z,0.70
2022-07-26T04:35:53.203Z,0.50
2022-07-26T04:36:13.792Z,0.70
2022-07-26T04:36:34.381Z,0.60
2022-07-26T04:36:54.776Z,0.40
2022-07-26T04:37:15.358Z,0.60
2022-07-26T04:37:35.944Z,0.70
2022-07-26T04:37:56.527Z,0.70
2022-07-26T04:38:17.106Z,0.70
2022-07-26T04:38:37.704Z,0.60
2022-07-26T04:38:58.348Z,0.70
2022-07-26T04:39:18.922Z,0.70
2022-07-26T04:39:39.501Z,0.80
2022-07-26T04:40:00.101Z,0.70
2022-07-26T04:40:21.492Z,0.70
2022-07-26T04:40:42.190Z,0.50
2022-07-26T04:41:03.767Z,0.70
2022-07-26T04:41:24.355Z,0.70
2022-07-26T04:41:44.939Z,0.50
2022-07-26T04:42:05.522Z,0.60
2022-07-26T04:42:26.104Z,0.60
2022-07-26T04:42:46.500Z,0.60
2022-07-26T04:43:07.084Z,0.70
2022-07-26T04:43:30.539Z,0.70
2022-07-26T04:43:51.119Z,0.60
2022-07-26T04:44:11.923Z,0.80
2022-07-26T04:44:32.676Z,0.60
2022-07-26T04:44:53.261Z,0.60
2022-07-26T04:45:13.653Z,0.60
2022-07-26T04:45:34.240Z,0.60
2022-07-26T04:45:54.886Z,0.50
2022-07-26T04:46:15.477Z,0.70
2022-07-26T04:46:36.134Z,0.70
2022-07-26T04:46:56.757Z,0.60
2022-07-26T04:47:17.340Z,0.60
2022-07-26T04:47:37.925Z,0.70
2022-07-26T04:47:58.508Z,0.60
2022-07-26T04:48:19.109Z,0.60
2022-07-26T04:48:39.750Z,0.60
2022-07-26T04:49:00.365Z,0.50
2022-07-26T04:49:20.926Z,0.60
2022-07-26T04:49:41.511Z,0.60
2022-07-26T04:50:02.092Z,0.60
2022-07-26T04:50:22.693Z,0.70
2022-07-26T04:50:43.258Z,0.70
2022-07-26T04:51:03.834Z,0.70
2022-07-26T04:51:24.415Z,0.60
2022-07-26T04:51:44.995Z,0.60
2022-07-26T04:52:05.578Z,0.50
2022-07-26T04:52:26.164Z,0.50
2022-07-26T04:52:46.755Z,0.50
2022-07-26T04:53:07.339Z,0.60
2022-07-26T04:53:27.943Z,0.60
2022-07-26T04:53:48.523Z,0.70
2022-07-26T04:54:09.521Z,0.60
2022-07-26T04:54:30.393Z,0.60
2022-07-26T04:54:50.977Z,0.50
2022-07-26T04:55:11.562Z,0.50
2022-07-26T04:55:32.148Z,0.60
2022-07-26T04:55:52.735Z,0.60
2022-07-26T04:56:13.321Z,0.60
2022-07-26T04:56:33.714Z,0.50
2022-07-26T04:56:54.300Z,0.60
2022-07-26T04:57:14.883Z,0.70
2022-07-26T04:57:35.463Z,0.60
2022-07-26T04:57:56.670Z,0.60
2022-07-26T04:58:17.248Z,0.60
2022-07-26T04:58:39.806Z,0.70
2022-07-26T04:59:00.397Z,0.70
2022-07-26T04:59:22.052Z,0.80
2022-07-26T04:59:42.709Z,0.70
2022-07-26T05:00:20.752Z,0.60
2022-07-26T05:00:24.260Z,0.50
2022-07-26T05:01:09.140Z,0.60
2022-07-26T05:01:10.362Z,0.70
2022-07-26T05:01:25.913Z,0.60
2022-07-26T05:01:46.559Z,0.60
2022-07-26T05:02:07.241Z,0.60
2022-07-26T05:02:27.980Z,0.70
2022-07-26T05:02:48.675Z,0.60
2022-07-26T05:03:09.344Z,0.60
2022-07-26T05:03:29.944Z,0.60
2022-07-26T05:03:50.532Z,0.60
2022-07-26T05:04:11.472Z,0.60
2022-07-26T05:04:32.102Z,0.70
2022-07-26T05:04:52.688Z,0.70
2022-07-26T05:05:13.271Z,0.60
2022-07-26T05:05:33.847Z,0.80
2022-07-26T05:05:54.434Z,0.70
2022-07-26T05:06:14.910Z,0.50
2022-07-26T05:06:35.458Z,0.60
2022-07-26T05:06:56.045Z,0.70
2022-07-26T05:07:16.629Z,0.60
2022-07-26T05:07:37.211Z,0.50
2022-07-26T05:07:57.805Z,0.60
2022-07-26T05:08:18.381Z,0.60
2022-07-26T05:08:38.980Z,0.70
2022-07-26T05:08:59.570Z,0.60
2022-07-26T05:09:20.150Z,0.60
2022-07-26T05:09:40.738Z,0.70
2022-07-26T05:10:01.320Z,0.70
2022-07-26T05:10:21.903Z,0.70
2022-07-26T05:10:44.901Z,0.60
2022-07-26T05:11:05.685Z,0.50
2022-07-26T05:11:26.267Z,0.60
2022-07-26T05:11:46.856Z,0.50
2022-07-26T05:12:07.432Z,0.50
2022-07-26T05:12:28.017Z,0.60
2022-07-26T05:12:48.602Z,0.70
2022-07-26T05:13:09.186Z,0.70
2022-07-26T05:13:31.015Z,0.60
2022-07-26T05:13:51.702Z,0.70
2022-07-26T05:14:12.292Z,0.80
2022-07-26T05:14:32.926Z,0.80
2022-07-26T05:14:53.915Z,0.60
2022-07-26T05:15:14.513Z,0.60
2022-07-26T05:15:35.754Z,0.60
2022-07-26T05:15:55.487Z,0.60
2022-07-26T05:16:16.068Z,0.60
2022-07-26T05:16:39.087Z,0.60
2022-07-26T05:16:57.123Z,0.60
2022-07-26T05:17:17.958Z,0.60
2022-07-26T05:17:39.111Z,0.60
2022-07-26T05:18:00.596Z,0.60
2022-07-26T05:18:21.016Z,0.70
2022-07-26T05:18:48.781Z,0.70
2022-07-26T05:19:04.341Z,0.60
2022-07-26T05:19:24.924Z,0.60
2022-07-26T05:19:49.059Z,0.80
2022-07-26T05:20:09.858Z,0.70
2022-07-26T05:20:30.428Z,0.70
2022-07-26T05:20:51.028Z,0.70
2022-07-26T05:21:11.591Z,0.60
2022-07-26T05:21:32.177Z,0.60
2022-07-26T05:21:52.757Z,0.60
2022-07-26T05:22:13.339Z,0.60
2022-07-26T05:22:33.924Z,0.50
2022-07-26T05:22:54.503Z,0.60
2022-07-26T05:23:15.318Z,0.60
2022-07-26T05:23:35.919Z,0.60
2022-07-26T05:23:56.498Z,0.50
2022-07-26T05:24:17.082Z,0.60
2022-07-26T05:24:37.663Z,0.60
2022-07-26T05:24:58.246Z,0.70
2022-07-26T05:25:18.829Z,0.60
2022-07-26T05:25:39.414Z,0.50
2022-07-26T05:26:00.000Z,0.40
2022-07-26T05:26:20.584Z,0.70
2022-07-26T05:26:41.166Z,0.60
2022-07-26T05:27:01.754Z,0.60
2022-07-26T05:27:22.340Z,0.60
2022-07-26T05:27:42.927Z,0.50
2022-07-26T05:28:03.503Z,0.60
2022-07-26T05:28:24.104Z,0.50
2022-07-26T05:28:44.684Z,0.50
2022-07-26T05:29:05.265Z,0.60
2022-07-26T05:29:25.867Z,0.60
2022-07-26T05:29:46.449Z,0.60
2022-07-26T05:30:07.030Z,0.60
2022-07-26T05:30:27.664Z,0.60
2022-07-26T05:30:48.329Z,0.60
2022-07-26T05:31:09.009Z,0.50
2022-07-26T05:31:29.709Z,0.60
2022-07-26T05:31:50.279Z,0.60
2022-07-26T05:32:10.860Z,0.70
2022-07-26T05:32:31.253Z,0.50
2022-07-26T05:32:51.834Z,0.60
2022-07-26T05:33:16.448Z,0.60
2022-07-26T05:33:37.323Z,0.70
2022-07-26T05:33:57.899Z,0.50
2022-07-26T05:34:18.483Z,0.70
2022-07-26T05:34:39.064Z,0.70
2022-07-26T05:34:59.647Z,0.60
2022-07-26T05:35:20.227Z,0.50
2022-07-26T05:35:40.805Z,0.60
2022-07-26T05:36:01.392Z,0.70
2022-07-26T05:36:21.974Z,0.60
2022-07-26T05:36:42.557Z,0.50
2022-07-26T05:37:03.138Z,0.60
2022-07-26T05:37:23.720Z,0.50
2022-07-26T05:37:44.306Z,0.50
2022-07-26T05:38:04.885Z,0.60
2022-07-26T05:38:25.487Z,0.50
2022-07-26T05:38:46.060Z,0.60
2022-07-26T05:39:06.642Z,0.50
2022-07-26T05:39:27.034Z,0.60
2022-07-26T05:39:47.613Z,0.60
2022-07-26T05:40:08.009Z,0.60
2022-07-26T05:40:28.591Z,0.50
2022-07-26T05:40:50.827Z,0.50
2022-07-26T05:41:11.614Z,0.50
2022-07-26T05:41:32.200Z,0.50
2022-07-26T05:41:52.775Z,0.60
2022-07-26T05:42:13.358Z,0.50
2022-07-26T05:42:33.942Z,0.50
2022-07-26T05:42:54.530Z,0.50
2022-07-26T05:43:15.112Z,0.60
2022-07-26T05:43:41.594Z,0.60
2022-07-26T05:43:56.109Z,0.50
2022-07-26T05:44:16.695Z,0.50
2022-07-26T05:44:42.513Z,0.60
2022-07-26T05:45:03.408Z,0.50
2022-07-26T05:45:23.988Z,0.60
2022-07-26T05:45:44.603Z,0.50
2022-07-26T05:46:09.336Z,0.60
2022-07-26T05:46:25.292Z,0.60
2022-07-26T05:46:45.591Z,0.70
2022-07-26T05:47:06.177Z,0.50
2022-07-26T05:47:26.754Z,0.50
2022-07-26T05:47:47.339Z,0.50
2022-07-26T05:48:07.923Z,0.50
2022-07-26T05:48:28.565Z,0.50
2022-07-26T05:48:49.206Z,0.50
2022-07-26T05:49:09.891Z,0.40
2022-07-26T05:49:39.667Z,0.70
2022-07-26T05:49:50.894Z,0.80
2022-07-26T05:50:11.471Z,0.60
2022-07-26T05:50:32.055Z,0.50
2022-07-26T05:50:52.641Z,0.50
2022-07-26T05:51:13.234Z,0.50
2022-07-26T05:51:33.811Z,0.50
2022-07-26T05:51:58.148Z,0.60
2022-07-26T05:52:14.799Z,0.50
2022-07-26T05:52:35.381Z,0.70
2022-07-26T05:52:55.963Z,0.60
2022-07-26T05:53:16.356Z,0.60
2022-07-26T05:53:36.953Z,0.60
2022-07-26T05:53:57.358Z,0.70
2022-07-26T05:54:17.938Z,0.70
2022-07-26T05:54:38.344Z,0.60
2022-07-26T05:54:58.933Z,0.50
2022-07-26T05:55:19.515Z,0.50
2022-07-26T05:55:40.099Z,0.60
2022-07-26T05:56:00.684Z,0.60
2022-07-26T05:56:21.264Z,0.70
2022-07-26T05:56:41.856Z,0.60
2022-07-26T05:57:02.439Z,0.60
2022-07-26T05:57:23.017Z,0.50
2022-07-26T05:57:43.597Z,0.60
2022-07-26T05:58:04.190Z,0.50
2022-07-26T05:58:24.783Z,0.50
2022-07-26T05:58:45.369Z,0.70
2022-07-26T05:59:05.949Z,0.60
2022-07-26T05:59:26.532Z,0.60
2022-07-26T05:59:47.119Z,0.70
2022-07-26T06:00:07.704Z,0.50
2022-07-26T06:00:28.568Z,0.50
2022-07-26T06:00:49.151Z,0.50
2022-07-26T06:01:09.735Z,0.50
2022-07-26T06:01:30.328Z,0.50
2022-07-26T06:01:53.465Z,0.60
2022-07-26T06:02:14.513Z,0.70
2022-07-26T06:02:35.156Z,0.60
2022-07-26T06:02:55.887Z,0.50
2022-07-26T06:03:16.451Z,0.60
2022-07-26T06:03:37.046Z,0.60
2022-07-26T06:03:57.717Z,0.50
2022-07-26T06:04:18.323Z,0.60
2022-07-26T06:04:39.019Z,0.80
2022-07-26T06:04:59.621Z,0.50
2022-07-26T06:05:20.202Z,0.50
2022-07-26T06:05:40.784Z,0.50
2022-07-26T06:06:01.374Z,0.50
2022-07-26T06:06:21.954Z,0.60
2022-07-26T06:06:42.536Z,0.60
2022-07-26T06:07:03.117Z,0.50
2022-07-26T06:07:23.988Z,0.50
2022-07-26T06:07:44.578Z,0.50
2022-07-26T06:08:05.153Z,0.50
2022-07-26T06:08:25.750Z,0.40
2022-07-26T06:08:46.328Z,0.50
2022-07-26T06:09:06.916Z,0.40
2022-07-26T06:09:27.500Z,0.50
2022-07-26T06:09:48.083Z,0.50
2022-07-26T06:10:08.665Z,0.50
2022-07-26T06:10:29.254Z,0.50
2022-07-26T06:10:49.836Z,0.50
2022-07-26T06:11:10.414Z,0.60
2022-07-26T06:11:30.997Z,0.50
2022-07-26T06:11:51.592Z,0.40
2022-07-26T06:12:12.167Z,0.50
2022-07-26T06:12:32.755Z,0.60
2022-07-26T06:12:53.336Z,0.60
2022-07-26T06:13:13.920Z,0.50
2022-07-26T06:13:34.515Z,0.50
2022-07-26T06:13:56.742Z,0.50
2022-07-26T06:14:17.345Z,0.60
2022-07-26T06:14:37.927Z,0.60
2022-07-26T06:14:58.508Z,0.60
2022-07-26T06:15:19.092Z,0.30
2022-07-26T06:15:39.675Z,0.40
2022-07-26T06:16:00.265Z,0.50
2022-07-26T06:16:20.846Z,0.60
2022-07-26T06:16:41.585Z,0.60
2022-07-26T06:17:02.211Z,0.50
2022-07-26T06:17:22.925Z,0.80
2022-07-26T06:17:43.553Z,0.90
2022-07-26T06:18:04.128Z,0.40
2022-07-26T06:18:24.724Z,0.40
2022-07-26T06:18:45.118Z,0.50
2022-07-26T06:19:05.701Z,0.50
2022-07-26T06:19:26.098Z,0.50
2022-07-26T06:19:47.916Z,0.60
2022-07-26T06:20:08.921Z,0.50
2022-07-26T06:20:29.503Z,0.50
2022-07-26T06:20:50.086Z,0.50
2022-07-26T06:21:10.664Z,0.50
2022-07-26T06:21:31.247Z,0.50
2022-07-26T06:21:51.826Z,0.50
2022-07-26T06:22:12.406Z,0.50
2022-07-26T06:22:32.989Z,0.40
2022-07-26T06:22:53.570Z,0.40
2022-07-26T06:23:13.964Z,0.60
2022-07-26T06:23:35.242Z,0.60
2022-07-26T06:23:55.907Z,0.50
2022-07-26T06:24:16.490Z,0.70
2022-07-26T06:24:37.070Z,0.60
2022-07-26T06:24:57.467Z,0.70
2022-07-26T06:25:18.046Z,0.60
2022-07-26T06:25:38.632Z,0.50
2022-07-26T06:25:59.213Z,0.50
2022-07-26T06:26:19.799Z,0.50
2022-07-26T06:26:40.384Z,0.60
2022-07-26T06:27:04.850Z,0.50
2022-07-26T06:27:25.991Z,0.60
2022-07-26T06:27:46.575Z,0.60
2022-07-26T06:28:07.156Z,0.60
2022-07-26T06:28:27.749Z,0.50
2022-07-26T06:28:48.332Z,0.60
2022-07-26T06:29:08.921Z,0.60
2022-07-26T06:29:32.181Z,0.50
2022-07-26T06:29:53.209Z,0.40
2022-07-26T06:30:13.611Z,0.50
2022-07-26T06:30:34.004Z,0.50
2022-07-26T06:30:54.401Z,0.40
2022-07-26T06:31:15.055Z,0.40
2022-07-26T06:31:35.726Z,0.40
2022-07-26T06:31:56.293Z,0.40
2022-07-26T06:32:16.711Z,0.40
2022-07-26T06:32:37.269Z,0.50
2022-07-26T06:32:57.849Z,0.60
2022-07-26T06:33:18.651Z,0.50
2022-07-26T06:33:39.250Z,0.60
2022-07-26T06:33:59.841Z,0.40
2022-07-26T06:34:20.226Z,0.40
2022-07-26T06:34:40.809Z,0.40
2022-07-26T06:35:01.393Z,0.50
2022-07-26T06:35:21.974Z,0.70
2022-07-26T06:35:42.555Z,0.50
2022-07-26T06:36:03.151Z,0.50